createdAt,value
2022-07-27T00:00:29.158Z,18.31
2022-07-27T00:02:31.875Z,18.02
2022-07-27T00:04:34.582Z,18.06
2022-07-27T00:06:37.284Z,18.23
2022-07-27T00:08:40.353Z,18.28
2022-07-27T00:10:42.926Z,18.03
2022-07-27T00:12:46.661Z,18.09
2022-07-27T00:14:49.318Z,17.98
2022-07-27T00:16:51.953Z,17.85
2022-07-27T00:18:54.688Z,18.12
2022-07-27T00:20:57.328Z,17.64
2022-07-27T00:23:00.185Z,18.19
2022-07-27T00:25:02.835Z,17.90
2022-07-27T00:27:05.453Z,18.01
2022-07-27T00:29:08.549Z,17.58
2022-07-27T00:31:11.539Z,17.68
2022-07-27T00:33:16.900Z,17.82
2022-07-27T00:35:20.973Z,17.73
2022-07-27T00:37:23.591Z,17.62
2022-07-27T00:39:33.237Z,17.77
2022-07-27T00:41:35.827Z,17.39
2022-07-27T00:43:56.710Z,17.67
2022-07-27T00:45:59.600Z,17.82
2022-07-27T00:48:07.299Z,17.61
2022-07-27T00:50:10.944Z,17.74
2022-07-27T00:52:14.999Z,17.55
2022-07-27T00:54:17.797Z,17.54
2022-07-27T00:56:21.792Z,17.11
2022-07-27T00:58:25.856Z,17.40
2022-07-27T01:00:29.215Z,17.29
2022-07-27T01:02:31.985Z,17.29
2022-07-27T01:04:35.413Z,17.45
2022-07-27T01:06:38.240Z,17.42
2022-07-27T01:08:42.608Z,17.41
2022-07-27T01:10:45.801Z,16.82
2022-07-27T01:12:48.679Z,17.05
2022-07-27T01:14:53.177Z,16.60
2022-07-27T01:16:55.748Z,16.80
2022-07-27T01:18:58.327Z,16.93
2022-07-27T01:21:04.418Z,16.70
2022-07-27T01:23:07.015Z,16.78
2022-07-27T01:25:10.680Z,16.54
2022-07-27T01:27:13.247Z,16.78
2022-07-27T01:29:16.568Z,16.56
2022-07-27T01:31:19.275Z,16.57
2022-07-27T01:33:26.082Z,16.60
2022-07-27T01:35:29.733Z,16.50
2022-07-27T01:37:32.428Z,16.46
2022-07-27T01:39:35.126Z,16.36
2022-07-27T01:41:37.786Z,16.32
2022-07-27T01:43:41.091Z,16.50
2022-07-27T01:45:43.815Z,15.86
2022-07-27T01:47:46.372Z,16.16
2022-07-27T01:49:48.983Z,16.00
2022-07-27T01:51:51.767Z,16.37
2022-07-27T01:53:54.828Z,16.38
2022-07-27T01:55:57.422Z,16.15
2022-07-27T01:58:03.936Z,15.91
2022-07-27T02:00:13.634Z,16.25
2022-07-27T02:02:16.415Z,15.65
2022-07-27T02:04:18.997Z,16.10
2022-07-27T02:06:21.639Z,15.87
2022-07-27T02:08:24.253Z,15.73
2022-07-27T02:10:26.892Z,15.97
2022-07-27T02:12:35.636Z,15.88
2022-07-27T02:14:38.222Z,15.23
2022-07-27T02:16:41.262Z,15.67
2022-07-27T02:18:45.875Z,15.86
2022-07-27T02:20:51.657Z,15.70
2022-07-27T02:22:55.281Z,15.93
2022-07-27T02:24:58.304Z,15.75
2022-07-27T02:27:00.952Z,15.81
2022-07-27T02:29:03.536Z,15.40
2022-07-27T02:31:06.288Z,15.83
2022-07-27T02:33:09.227Z,15.93
2022-07-27T02:35:18.246Z,15.46
2022-07-27T02:37:23.051Z,15.89
2022-07-27T02:39:25.656Z,15.49
2022-07-27T02:41:29.253Z,15.56
2022-07-27T02:43:31.842Z,15.80
2022-07-27T02:45:34.479Z,15.30
2022-07-27T02:47:38.030Z,15.74
2022-07-27T02:49:40.578Z,15.90
2022-07-27T02:51:43.214Z,15.66
2022-07-27T02:53:45.879Z,15.95
2022-07-27T02:55:48.483Z,15.93
2022-07-27T02:57:51.057Z,15.85
2022-07-27T02:59:53.864Z,15.05
2022-07-27T03:02:01.075Z,15.87
2022-07-27T03:04:04.382Z,15.98
2022-07-27T03:06:07.862Z,15.93
2022-07-27T03:08:10.587Z,15.60
2022-07-27T03:10:13.211Z,15.60
2022-07-27T03:12:15.784Z,15.76
2022-07-27T03:14:18.404Z,15.80
2022-07-27T03:16:21.728Z,15.71
2022-07-27T03:18:25.284Z,15.80
2022-07-27T03:20:33.803Z,15.11
2022-07-27T03:22:36.517Z,15.76
2022-07-27T03:24:39.206Z,15.59
2022-07-27T03:26:41.867Z,15.44
2022-07-27T03:28:44.447Z,15.33
2022-07-27T03:30:47.079Z,15.59
2022-07-27T03:32:49.850Z,15.77
2022-07-27T03:34:52.880Z,15.81
2022-07-27T03:36:55.459Z,15.69
2022-07-27T03:38:59.793Z,15.11
2022-07-27T03:41:05.042Z,15.47
2022-07-27T03:43:08.290Z,15.18
2022-07-27T03:45:11.199Z,15.50
2022-07-27T03:47:13.758Z,15.59
2022-07-27T03:49:16.869Z,15.33
2022-07-27T03:51:19.770Z,15.16
2022-07-27T03:53:22.855Z,15.38
2022-07-27T03:55:25.996Z,15.73
2022-07-27T03:57:28.594Z,15.95
2022-07-27T03:59:32.201Z,15.79
2022-07-27T04:01:34.958Z,15.83
2022-07-27T04:03:42.432Z,15.27
2022-07-27T04:05:46.768Z,15.30
2022-07-27T04:07:49.924Z,15.29
2022-07-27T04:09:57.549Z,15.70
2022-07-27T04:12:00.763Z,15.98
2022-07-27T04:14:03.820Z,15.91
2022-07-27T04:16:06.431Z,16.32
2022-07-27T04:18:09.014Z,16.56
2022-07-27T04:20:11.754Z,16.03
2022-07-27T04:22:14.353Z,16.06
2022-07-27T04:24:16.914Z,16.72
2022-07-27T04:26:20.016Z,16.91
2022-07-27T04:28:22.728Z,16.31
2022-07-27T04:30:26.221Z,16.84
2022-07-27T04:32:30.101Z,16.78
2022-07-27T04:34:32.670Z,17.07
2022-07-27T04:36:37.983Z,16.60
2022-07-27T04:38:40.612Z,17.15
2022-07-27T04:40:43.167Z,17.03
2022-07-27T04:42:49.616Z,17.33
2022-07-27T04:44:52.594Z,17.47
2022-07-27T04:46:55.148Z,17.46
2022-07-27T04:48:58.175Z,17.25
2022-07-27T04:51:01.562Z,17.17
2022-07-27T04:53:04.139Z,16.88
2022-07-27T04:55:07.025Z,17.36
2022-07-27T04:57:09.637Z,17.24
2022-07-27T04:59:12.695Z,17.44
2022-07-27T05:01:16.066Z,17.61
2022-07-27T05:03:18.780Z,17.83
2022-07-27T05:05:22.249Z,17.61
2022-07-27T05:07:26.552Z,17.83
2022-07-27T05:09:29.449Z,18.00
2022-07-27T05:11:32.162Z,17.25
2022-07-27T05:13:37.847Z,17.54
2022-07-27T05:15:55.582Z,18.09
2022-07-27T05:17:58.595Z,17.99
2022-07-27T05:20:03.053Z,17.83
2022-07-27T05:22:05.756Z,17.68
2022-07-27T05:24:08.447Z,18.15
2022-07-27T05:26:12.324Z,18.07
2022-07-27T05:28:14.988Z,17.92
2022-07-27T05:30:17.779Z,17.65
2022-07-27T05:32:41.098Z,17.01
2022-07-27T05:34:47.016Z,16.84
2022-07-27T05:36:49.704Z,17.24
2022-07-27T05:38:52.279Z,17.14
2022-07-27T05:40:54.892Z,17.55
2022-07-27T05:42:57.811Z,17.55
2022-07-27T05:45:01.866Z,17.54
2022-07-27T05:47:06.224Z,17.49
2022-07-27T05:49:09.522Z,17.13
2022-07-27T05:51:12.469Z,16.82
2022-07-27T05:53:15.041Z,16.81
2022-07-27T05:55:17.699Z,17.72
2022-07-27T05:57:20.314Z,17.85
2022-07-27T05:59:24.251Z,18.21
2022-07-27T06:01:27.680Z,18.82
2022-07-27T06:03:32.540Z,19.30
2022-07-27T06:05:35.283Z,19.72
2022-07-27T06:07:56.254Z,20.19
2022-07-27T06:10:03.360Z,20.47
2022-07-27T06:12:06.876Z,20.84
2022-07-27T06:14:09.790Z,20.62
2022-07-27T06:16:12.539Z,20.39
2022-07-27T06:18:18.316Z,20.30
2022-07-27T06:20:22.532Z,20.51
2022-07-27T06:22:25.171Z,20.58
2022-07-27T06:24:27.800Z,20.80
2022-07-27T06:26:30.516Z,20.80
2022-07-27T06:28:33.220Z,20.74
2022-07-27T06:30:36.121Z,20.43
2022-07-27T06:32:39.019Z,20.42
2022-07-27T06:34:43.287Z,20.56
2022-07-27T06:36:47.058Z,21.24
2022-07-27T06:38:50.109Z,21.38
2022-07-27T06:40:53.747Z,21.62
2022-07-27T06:42:56.756Z,21.64
2022-07-27T06:44:59.547Z,21.48
2022-07-27T06:47:02.219Z,21.16
2022-07-27T06:49:04.978Z,21.10
2022-07-27T06:51:08.743Z,21.95
2022-07-27T06:53:11.411Z,20.99
2022-07-27T06:55:14.342Z,22.02
2022-07-27T06:57:17.014Z,21.90
2022-07-27T06:59:19.563Z,21.49
2022-07-27T07:01:23.405Z,22.04
2022-07-27T07:03:26.627Z,22.26
2022-07-27T07:05:30.035Z,22.17
2022-07-27T07:07:32.728Z,22.28
2022-07-27T07:09:35.793Z,21.86
2022-07-27T07:11:38.506Z,21.48
2022-07-27T07:13:44.928Z,22.10
2022-07-27T07:15:50.260Z,22.28
2022-07-27T07:17:54.373Z,21.46
2022-07-27T07:19:57.188Z,22.20
2022-07-27T07:22:00.827Z,22.44
2022-07-27T07:24:03.778Z,22.59
2022-07-27T07:26:07.006Z,22.22
2022-07-27T07:28:09.644Z,22.62
2022-07-27T07:30:13.063Z,22.41
2022-07-27T07:32:16.328Z,22.57
2022-07-27T07:34:19.015Z,22.09
2022-07-27T07:36:25.899Z,22.27
2022-07-27T07:38:28.517Z,22.21
2022-07-27T07:40:46.480Z,22.38
2022-07-27T07:42:54.502Z,23.04
2022-07-27T07:44:57.175Z,23.23
2022-07-27T07:47:00.522Z,23.14
2022-07-27T07:49:05.070Z,23.48
2022-07-27T07:51:07.765Z,23.47
2022-07-27T07:53:10.452Z,24.10
2022-07-27T07:55:21.292Z,24.58
2022-07-27T07:57:24.266Z,24.37
2022-07-27T07:59:28.338Z,24.59
2022-07-27T08:01:31.556Z,24.73
2022-07-27T08:03:34.958Z,24.65
2022-07-27T08:05:37.742Z,24.97
2022-07-27T08:07:41.791Z,25.06
2022-07-27T08:09:44.653Z,25.58
2022-07-27T08:11:49.297Z,25.86
2022-07-27T08:13:51.899Z,26.04
2022-07-27T08:15:54.586Z,26.21
2022-07-27T08:17:57.249Z,25.88
2022-07-27T08:19:59.865Z,26.16
2022-07-27T08:22:02.543Z,26.46
2022-07-27T08:24:05.327Z,26.55
2022-07-27T08:26:08.389Z,26.35
2022-07-27T08:28:11.023Z,26.36
2022-07-27T08:30:13.955Z,25.81
2022-07-27T08:32:16.713Z,25.68
2022-07-27T08:34:19.371Z,25.61
2022-07-27T08:36:21.999Z,25.76
2022-07-27T08:38:27.354Z,26.11
2022-07-27T08:40:46.749Z,26.22
2022-07-27T08:42:49.939Z,25.95
2022-07-27T08:44:54.345Z,26.68
2022-07-27T08:47:02.616Z,27.30
2022-07-27T08:49:05.430Z,27.55
2022-07-27T08:51:08.132Z,26.92
2022-07-27T08:53:13.522Z,26.98
2022-07-27T08:55:16.444Z,26.14
2022-07-27T08:57:19.179Z,26.41
2022-07-27T08:59:21.740Z,26.01
2022-07-27T09:01:24.436Z,26.42
2022-07-27T09:03:27.140Z,26.46
2022-07-27T09:05:37.113Z,26.27
2022-07-27T09:07:40.975Z,25.94
2022-07-27T09:09:47.051Z,25.78
2022-07-27T09:12:10.641Z,25.63
2022-07-27T09:14:14.378Z,25.60
2022-07-27T09:16:19.352Z,25.42
2022-07-27T09:18:28.528Z,25.20
2022-07-27T09:20:31.198Z,24.50
2022-07-27T09:22:53.147Z,24.39
2022-07-27T09:25:02.727Z,24.52
2022-07-27T09:27:05.891Z,24.95
2022-07-27T09:29:09.826Z,25.13
2022-07-27T09:31:15.701Z,25.24
2022-07-27T09:33:18.393Z,25.34
2022-07-27T09:35:36.637Z,25.57
2022-07-27T09:37:40.018Z,25.43
2022-07-27T09:40:09.993Z,25.15
2022-07-27T09:43:03.842Z,24.55
2022-07-27T09:44:45.249Z,24.24
2022-07-27T09:46:48.773Z,23.49
2022-07-27T09:48:58.738Z,23.81
2022-07-27T09:51:32.812Z,24.27
2022-07-27T09:53:43.632Z,24.27
2022-07-27T09:56:02.635Z,24.58
2022-07-27T09:58:05.346Z,24.76
2022-07-27T10:00:14.039Z,24.63
2022-07-27T10:02:16.982Z,24.49
2022-07-27T10:04:20.841Z,24.48
2022-07-27T10:06:25.315Z,24.78
2022-07-27T10:08:54.537Z,25.02
2022-07-27T10:10:58.116Z,25.57
2022-07-27T10:13:00.748Z,25.69
2022-07-27T10:15:03.546Z,25.65
2022-07-27T10:17:07.652Z,25.76
2022-07-27T10:19:20.465Z,25.85
2022-07-27T10:21:24.869Z,25.38
2022-07-27T10:23:29.283Z,25.10
2022-07-27T10:25:32.513Z,24.48
2022-07-27T10:27:41.351Z,24.88
2022-07-27T10:29:44.070Z,24.56
2022-07-27T10:31:52.657Z,24.93
2022-07-27T10:34:38.608Z,24.64
2022-07-27T10:36:48.384Z,24.54
2022-07-27T10:38:56.520Z,24.72
2022-07-27T10:41:25.722Z,24.69
2022-07-27T10:43:28.334Z,24.69
2022-07-27T10:45:59.978Z,25.03
2022-07-27T10:48:47.525Z,25.34
2022-07-27T10:50:53.156Z,25.09
2022-07-27T10:53:07.789Z,24.94
2022-07-27T10:55:36.481Z,25.95
2022-07-27T10:57:44.548Z,24.95
2022-07-27T11:00:08.106Z,25.81
2022-07-27T11:02:20.922Z,24.46
2022-07-27T11:04:26.590Z,25.01
2022-07-27T11:06:37.622Z,25.05
2022-07-27T11:09:17.070Z,24.96
2022-07-27T11:11:21.447Z,24.62
2022-07-27T11:13:35.364Z,24.02
2022-07-27T11:16:22.802Z,23.98
2022-07-27T11:18:39.153Z,23.40
2022-07-27T11:20:42.554Z,23.70
2022-07-27T11:23:20.821Z,23.25
2022-07-27T11:25:09.214Z,23.50
2022-07-27T11:27:19.149Z,22.92
2022-07-27T11:29:25.715Z,21.90
2022-07-27T11:31:52.816Z,22.60
2022-07-27T11:34:00.766Z,22.60
2022-07-27T11:36:06.617Z,22.71
2022-07-27T11:38:09.573Z,22.52
2022-07-27T11:40:37.496Z,22.91
2022-07-27T11:42:40.153Z,23.20
2022-07-27T11:44:44.768Z,23.29
2022-07-27T11:46:52.273Z,23.39
2022-07-27T11:49:09.445Z,23.41
2022-07-27T11:51:20.732Z,23.47
2022-07-27T11:53:23.377Z,23.03
2022-07-27T11:55:30.708Z,23.24
2022-07-27T11:57:33.991Z,23.77
2022-07-27T11:59:46.828Z,24.05
2022-07-27T12:02:01.740Z,24.01
2022-07-27T12:04:16.571Z,22.77
2022-07-27T12:06:20.202Z,22.82
2022-07-27T12:08:32.857Z,22.46
2022-07-27T12:10:37.707Z,23.66
2022-07-27T12:12:51.426Z,23.87
2022-07-27T12:14:57.391Z,24.16
2022-07-27T12:17:31.157Z,24.84
2022-07-27T12:19:34.001Z,25.31
2022-07-27T12:21:36.986Z,25.30
2022-07-27T12:23:52.547Z,25.50
2022-07-27T12:25:56.453Z,24.93
2022-07-27T12:28:18.061Z,24.72
2022-07-27T12:30:49.087Z,24.54
2022-07-27T12:33:03.030Z,24.34
2022-07-27T12:35:36.272Z,24.15
2022-07-27T12:37:42.754Z,24.26
2022-07-27T12:39:46.814Z,24.51
2022-07-27T12:42:07.012Z,24.59
2022-07-27T12:44:12.859Z,24.79
2022-07-27T12:46:17.272Z,24.80
2022-07-27T12:48:28.213Z,24.86
2022-07-27T12:50:30.830Z,24.69
2022-07-27T12:52:37.695Z,25.18
2022-07-27T12:54:40.336Z,25.12
2022-07-27T12:56:43.094Z,25.02
2022-07-27T12:59:03.523Z,25.42
2022-07-27T13:01:06.870Z,25.34
2022-07-27T13:03:10.694Z,25.63
2022-07-27T13:05:15.452Z,25.49
2022-07-27T13:07:19.420Z,25.78
2022-07-27T13:09:22.507Z,25.13
2022-07-27T13:11:27.179Z,25.65
2022-07-27T13:13:29.868Z,25.39
2022-07-27T13:15:32.597Z,25.48
2022-07-27T13:17:36.011Z,25.61
2022-07-27T13:19:38.716Z,25.46
2022-07-27T13:21:41.915Z,25.41
2022-07-27T13:23:46.626Z,25.57
2022-07-27T13:25:49.502Z,25.52
2022-07-27T13:27:52.466Z,25.50
2022-07-27T13:29:55.458Z,25.84
2022-07-27T13:31:58.232Z,26.00
2022-07-27T13:34:03.657Z,25.99
2022-07-27T13:36:16.379Z,25.85
2022-07-27T13:38:19.018Z,25.60
2022-07-27T13:40:29.015Z,25.91
2022-07-27T13:42:39.565Z,25.85
2022-07-27T13:45:03.794Z,25.66
2022-07-27T13:47:06.947Z,25.05
2022-07-27T13:49:09.547Z,24.87
2022-07-27T13:51:15.901Z,24.69
2022-07-27T13:53:19.073Z,23.90
2022-07-27T13:55:27.712Z,24.63
2022-07-27T13:57:30.763Z,24.40
2022-07-27T13:59:33.427Z,24.19
2022-07-27T14:01:38.410Z,24.42
2022-07-27T14:04:14.684Z,24.40
2022-07-27T14:06:20.338Z,24.48
2022-07-27T14:08:26.682Z,24.15
2022-07-27T14:10:32.114Z,23.73
2022-07-27T14:12:34.737Z,24.00
2022-07-27T14:14:37.560Z,24.00
2022-07-27T14:16:40.320Z,24.43
2022-07-27T14:18:43.092Z,24.13
2022-07-27T14:20:45.690Z,24.18
2022-07-27T14:22:48.386Z,24.40
2022-07-27T14:24:55.279Z,24.37
2022-07-27T14:27:02.472Z,24.61
2022-07-27T14:29:05.187Z,24.72
2022-07-27T14:31:11.151Z,24.99
2022-07-27T14:33:19.873Z,24.69
2022-07-27T14:35:23.078Z,24.88
2022-07-27T14:37:25.692Z,25.01
2022-07-27T14:39:28.433Z,24.34
2022-07-27T14:41:31.499Z,24.67
2022-07-27T14:43:49.329Z,25.24
2022-07-27T14:45:52.078Z,25.25
2022-07-27T14:48:04.138Z,25.43
2022-07-27T14:50:09.655Z,25.50
2022-07-27T14:52:15.665Z,25.22
2022-07-27T14:54:18.365Z,24.89
2022-07-27T14:56:21.363Z,25.11
2022-07-27T14:58:24.118Z,24.47
2022-07-27T15:00:37.666Z,25.06
2022-07-27T15:02:42.867Z,25.32
2022-07-27T15:04:46.718Z,25.17
2022-07-27T15:06:49.545Z,25.08
2022-07-27T15:08:52.335Z,25.04
2022-07-27T15:10:57.687Z,24.98
2022-07-27T15:13:00.589Z,25.17
2022-07-27T15:15:05.398Z,25.15
2022-07-27T15:17:08.869Z,24.97
2022-07-27T15:19:12.707Z,24.72
2022-07-27T15:21:15.481Z,24.80
2022-07-27T15:23:18.064Z,24.82
2022-07-27T15:25:22.323Z,24.64
2022-07-27T15:27:25.148Z,24.36
2022-07-27T15:29:27.767Z,23.69
2022-07-27T15:31:31.176Z,24.41
2022-07-27T15:33:33.763Z,23.58
2022-07-27T15:35:36.490Z,24.19
2022-07-27T15:37:39.337Z,23.38
2022-07-27T15:39:42.329Z,23.92
2022-07-27T15:41:44.925Z,23.64
2022-07-27T15:43:48.765Z,23.61
2022-07-27T15:45:51.713Z,24.12
2022-07-27T15:47:54.334Z,23.95
2022-07-27T15:49:56.907Z,24.02
2022-07-27T15:52:01.230Z,24.16
2022-07-27T15:54:05.154Z,24.14
2022-07-27T15:56:08.433Z,23.79
2022-07-27T15:58:13.562Z,24.08
2022-07-27T16:00:16.588Z,23.73
2022-07-27T16:02:24.650Z,23.45
2022-07-27T16:04:28.183Z,23.48
2022-07-27T16:06:38.261Z,22.84
2022-07-27T16:08:41.569Z,23.10
2022-07-27T16:10:45.463Z,22.67
2022-07-27T16:12:48.181Z,23.09
2022-07-27T16:14:50.793Z,23.03
2022-07-27T16:16:54.359Z,22.85
2022-07-27T16:19:12.710Z,22.88
2022-07-27T16:21:16.387Z,23.44
2022-07-27T16:23:22.103Z,23.40
2022-07-27T16:25:45.860Z,23.52
2022-07-27T16:27:47.550Z,23.29
2022-07-27T16:29:50.209Z,22.83
2022-07-27T16:31:58.192Z,23.48
2022-07-27T16:34:00.913Z,23.38
2022-07-27T16:36:06.008Z,23.14
2022-07-27T16:38:11.936Z,23.18
2022-07-27T16:40:15.706Z,22.81
2022-07-27T16:42:18.374Z,22.92
2022-07-27T16:44:21.682Z,22.80
2022-07-27T16:46:24.424Z,22.59
2022-07-27T16:48:27.032Z,22.29
2022-07-27T16:50:29.739Z,22.59
2022-07-27T16:52:33.102Z,22.63
2022-07-27T16:54:39.603Z,22.71
2022-07-27T16:56:42.507Z,22.75
2022-07-27T16:58:45.226Z,22.71
2022-07-27T17:00:47.798Z,22.62
2022-07-27T17:02:52.537Z,22.07
2022-07-27T17:04:55.149Z,22.02
2022-07-27T17:06:58.834Z,22.69
2022-07-27T17:09:02.557Z,22.88
2022-07-27T17:11:06.697Z,22.91
2022-07-27T17:13:13.605Z,22.63
2022-07-27T17:15:16.774Z,22.56
2022-07-27T17:17:19.589Z,22.20
2022-07-27T17:19:22.197Z,22.54
2022-07-27T17:21:25.234Z,22.59
2022-07-27T17:23:33.458Z,22.61
2022-07-27T17:25:38.427Z,22.53
2022-07-27T17:27:41.479Z,22.52
2022-07-27T17:30:00.260Z,22.76
2022-07-27T17:32:02.853Z,22.93
2022-07-27T17:34:05.432Z,22.27
2022-07-27T17:36:15.156Z,22.40
2022-07-27T17:38:19.988Z,21.87
2022-07-27T17:40:23.479Z,21.70
2022-07-27T17:42:28.138Z,22.22
2022-07-27T17:44:38.053Z,22.14
2022-07-27T17:46:41.088Z,22.07
2022-07-27T17:48:43.842Z,22.00
2022-07-27T17:50:46.743Z,21.73
2022-07-27T17:52:49.342Z,22.02
2022-07-27T17:54:57.400Z,21.64
2022-07-27T17:56:59.992Z,21.22
2022-07-27T17:59:27.008Z,21.48
2022-07-27T18:01:46.323Z,21.45
2022-07-27T18:04:16.005Z,21.13
2022-07-27T18:06:18.761Z,20.94
2022-07-27T18:08:21.855Z,21.06
2022-07-27T18:10:38.191Z,21.06
2022-07-27T18:12:41.383Z,20.93
2022-07-27T18:15:04.076Z,20.77
2022-07-27T18:17:06.709Z,20.58
2022-07-27T18:19:09.561Z,20.62
2022-07-27T18:21:13.583Z,20.72
2022-07-27T18:23:16.597Z,20.49
2022-07-27T18:25:19.359Z,20.30
2022-07-27T18:27:25.546Z,20.36
2022-07-27T18:29:31.189Z,20.32
2022-07-27T18:31:34.989Z,20.35
2022-07-27T18:33:38.069Z,19.84
2022-07-27T18:35:43.194Z,20.14
2022-07-27T18:37:45.879Z,20.19
2022-07-27T18:39:48.456Z,20.08
2022-07-27T18:41:52.317Z,19.90
2022-07-27T18:43:55.764Z,20.05
2022-07-27T18:46:17.346Z,19.92
2022-07-27T18:48:20.280Z,19.97
2022-07-27T18:50:23.689Z,20.05
2022-07-27T18:52:29.269Z,19.87
2022-07-27T18:54:31.866Z,19.83
2022-07-27T18:56:34.418Z,19.63
2022-07-27T18:58:38.590Z,19.64
2022-07-27T19:00:42.711Z,19.75
2022-07-27T19:02:46.197Z,19.11
2022-07-27T19:04:50.631Z,19.55
2022-07-27T19:06:53.238Z,19.53
2022-07-27T19:08:56.005Z,19.45
2022-07-27T19:10:58.751Z,19.26
2022-07-27T19:13:01.318Z,19.33
2022-07-27T19:15:05.009Z,19.41
2022-07-27T19:17:08.083Z,19.34
2022-07-27T19:19:22.847Z,18.76
2022-07-27T19:21:27.001Z,19.07
2022-07-27T19:23:29.893Z,19.00
2022-07-27T19:25:33.884Z,19.13
2022-07-27T19:27:43.175Z,18.83
2022-07-27T19:29:46.613Z,18.78
2022-07-27T19:31:49.422Z,18.92
2022-07-27T19:33:52.615Z,18.36
2022-07-27T19:35:55.727Z,18.74
2022-07-27T19:37:58.613Z,18.67
2022-07-27T19:40:20.354Z,18.29
2022-07-27T19:42:26.938Z,18.59
2022-07-27T19:44:29.787Z,18.63
2022-07-27T19:46:32.444Z,18.48
2022-07-27T19:48:35.194Z,17.91
2022-07-27T19:50:38.152Z,18.34
2022-07-27T19:52:41.185Z,18.07
2022-07-27T19:54:43.969Z,18.28
2022-07-27T19:57:06.334Z,18.12
2022-07-27T19:59:13.623Z,18.04
2022-07-27T20:01:43.122Z,17.86
2022-07-27T20:03:52.197Z,18.17
2022-07-27T20:05:57.555Z,17.94
2022-07-27T20:08:12.978Z,18.05
2022-07-27T20:10:15.714Z,17.35
2022-07-27T20:12:19.467Z,17.01
2022-07-27T20:14:23.168Z,17.05
2022-07-27T20:16:30.421Z,17.81
2022-07-27T20:19:08.761Z,17.58
2022-07-27T20:21:22.341Z,17.10
2022-07-27T20:23:26.024Z,17.05
2022-07-27T20:25:28.787Z,16.96
2022-07-27T20:27:31.594Z,17.43
2022-07-27T20:29:34.241Z,16.90
2022-07-27T20:31:38.586Z,17.53
2022-07-27T20:33:41.459Z,17.51
2022-07-27T20:35:45.571Z,17.33
2022-07-27T20:37:48.396Z,16.90
2022-07-27T20:39:51.941Z,16.75
2022-07-27T20:41:54.755Z,16.78
2022-07-27T20:43:58.835Z,17.27
2022-07-27T20:46:01.447Z,16.92
2022-07-27T20:48:12.448Z,16.46
2022-07-27T20:50:15.493Z,16.39
2022-07-27T20:52:18.287Z,16.28
2022-07-27T20:54:28.993Z,16.57
2022-07-27T20:56:34.477Z,16.52
2022-07-27T20:58:37.217Z,15.83
2022-07-27T21:00:40.001Z,16.33
2022-07-27T21:02:42.958Z,16.71
2022-07-27T21:04:45.635Z,16.09
2022-07-27T21:06:48.459Z,16.15
2022-07-27T21:08:52.279Z,16.76
2022-07-27T21:10:55.889Z,16.52
2022-07-27T21:12:58.627Z,16.56
2022-07-27T21:15:02.636Z,16.07
2022-07-27T21:17:11.215Z,15.59
2022-07-27T21:19:14.280Z,16.05
2022-07-27T21:21:27.494Z,15.62
2022-07-27T21:23:52.475Z,16.26
2022-07-27T21:26:00.574Z,16.31
2022-07-27T21:28:04.646Z,15.50
2022-07-27T21:30:08.695Z,15.46
2022-07-27T21:32:11.787Z,15.49
2022-07-27T21:34:17.146Z,16.07
2022-07-27T21:36:20.117Z,16.02
2022-07-27T21:38:26.128Z,15.87
2022-07-27T21:40:28.862Z,15.81
2022-07-27T21:42:33.150Z,15.92
2022-07-27T21:44:37.589Z,15.25
2022-07-27T21:46:40.146Z,15.67
2022-07-27T21:48:43.025Z,15.42
2022-07-27T21:50:45.709Z,15.50
2022-07-27T21:52:48.273Z,14.91
2022-07-27T21:54:50.969Z,14.80
2022-07-27T21:56:53.601Z,15.42
2022-07-27T21:58:56.225Z,15.36
2022-07-27T22:00:58.866Z,14.74
2022-07-27T22:03:01.594Z,15.29
2022-07-27T22:05:04.658Z,14.33
2022-07-27T22:07:07.227Z,14.66
2022-07-27T22:09:20.332Z,15.40
2022-07-27T22:11:22.927Z,15.19
2022-07-27T22:13:26.579Z,15.21
2022-07-27T22:15:29.176Z,15.19
2022-07-27T22:17:45.948Z,15.25
2022-07-27T22:19:53.447Z,15.13
2022-07-27T22:21:56.384Z,15.10
2022-07-27T22:23:59.069Z,14.90
2022-07-27T22:26:01.759Z,14.92
2022-07-27T22:28:06.415Z,15.02
2022-07-27T22:30:10.501Z,15.01
2022-07-27T22:32:13.102Z,14.72
2022-07-27T22:34:16.195Z,15.01
2022-07-27T22:36:19.159Z,15.08
2022-07-27T22:38:23.859Z,14.34
2022-07-27T22:40:31.091Z,14.24
2022-07-27T22:42:33.762Z,14.62
2022-07-27T22:44:38.142Z,14.98
2022-07-27T22:46:40.796Z,14.81
2022-07-27T22:48:43.447Z,14.70
2022-07-27T22:50:47.774Z,14.92
2022-07-27T22:52:52.584Z,14.27
2022-07-27T22:54:55.175Z,14.21
2022-07-27T22:56:57.768Z,14.81
2022-07-27T22:59:00.365Z,14.61
2022-07-27T23:01:03.032Z,14.52
2022-07-27T23:03:05.743Z,14.68
2022-07-27T23:05:08.635Z,14.87
2022-07-27T23:07:11.234Z,14.56
2022-07-27T23:09:14.402Z,13.86
2022-07-27T23:11:17.336Z,14.67
2022-07-27T23:13:22.984Z,14.62
2022-07-27T23:15:55.153Z,14.50
2022-07-27T23:17:57.781Z,14.63
2022-07-27T23:20:00.353Z,14.65
2022-07-27T23:22:02.914Z,14.29
2022-07-27T23:24:05.912Z,14.65
2022-07-27T23:26:08.565Z,14.41
2022-07-27T23:28:12.196Z,14.68
2022-07-27T23:30:14.783Z,14.68
2022-07-27T23:32:17.518Z,13.84
2022-07-27T23:34:20.798Z,14.45
2022-07-27T23:36:25.077Z,14.41
2022-07-27T23:38:27.641Z,13.94
2022-07-27T23:40:30.410Z,14.52
2022-07-27T23:42:35.131Z,14.32
2022-07-27T23:44:37.687Z,13.73
2022-07-27T23:46:40.304Z,14.25
2022-07-27T23:48:42.967Z,14.35
2022-07-27T23:50:45.786Z,14.16
2022-07-27T23:52:49.727Z,14.34
2022-07-27T23:54:52.358Z,13.88
2022-07-27T23:56:55.026Z,14.32
2022-07-27T23:58:58.653Z,14.05
